sensor_id;sensor_type;location;lat;lon;timestamp;temperature;humidity
36884;DHT22;22816;52.044;4.730;2022-07-23T00:01:00;17.20;99.90
36884;DHT22;22816;52.044;4.730;2022-07-23T00:03:27;17.20;99.90
36884;DHT22;22816;52.044;4.730;2022-07-23T00:05:54;17.20;99.90
36884;DHT22;22816;52.044;4.730;2022-07-23T00:08:20;17.10;99.90
36884;DHT22;22816;52.044;4.730;2022-07-23T00:10:47;17.10;99.90
36884;DHT22;22816;52.044;4.730;2022-07-23T00:13:14;17.00;99.90
36884;DHT22;22816;52.044;4.730;2022-07-23T00:15:41;17.10;99.90
36884;DHT22;22816;52.044;4.730;2022-07-23T00:18:08;17.10;99.90
36884;DHT22;22816;52.044;4.730;2022-07-23T00:20:34;17.00;99.90
36884;DHT22;22816;52.044;4.730;2022-07-23T00:23:01;17.00;99.90
36884;DHT22;22816;52.044;4.730;2022-07-23T00:25:28;17.00;99.90
36884;DHT22;22816;52.044;4.730;2022-07-23T00:27:55;17.00;99.90
36884;DHT22;22816;52.044;4.730;2022-07-23T00:30:23;17.00;99.90
36884;DHT22;22816;52.044;4.730;2022-07-23T00:32:54;17.00;99.90
36884;DHT22;22816;52.044;4.730;2022-07-23T00:35:26;17.00;99.90
36884;DHT22;22816;52.044;4.730;2022-07-23T00:37:55;16.90;99.90
36884;DHT22;22816;52.044;4.730;2022-07-23T00:40:22;16.90;99.90
36884;DHT22;22816;52.044;4.730;2022-07-23T00:42:50;16.90;99.90
36884;DHT22;22816;52.044;4.730;2022-07-23T00:45:17;16.90;99.90
36884;DHT22;22816;52.044;4.730;2022-07-23T00:47:44;16.80;99.90
36884;DHT22;22816;52.044;4.730;2022-07-23T00:50:11;16.80;99.90
36884;DHT22;22816;52.044;4.730;2022-07-23T00:52:39;16.80;99.90
36884;DHT22;22816;52.044;4.730;2022-07-23T00:55:08;16.80;99.90
36884;DHT22;22816;52.044;4.730;2022-07-23T00:57:36;16.80;99.90
36884;DHT22;22816;52.044;4.730;2022-07-23T01:00:05;16.70;99.90
36884;DHT22;22816;52.044;4.730;2022-07-23T01:02:33;16.70;99.90
36884;DHT22;22816;52.044;4.730;2022-07-23T01:05:00;16.60;99.90
36884;DHT22;22816;52.044;4.730;2022-07-23T01:07:27;16.60;99.90
36884;DHT22;22816;52.044;4.730;2022-07-23T01:09:55;16.60;99.90
36884;DHT22;22816;52.044;4.730;2022-07-23T01:12:22;16.50;99.90
36884;DHT22;22816;52.044;4.730;2022-07-23T01:15:25;16.50;99.90
36884;DHT22;22816;52.044;4.730;2022-07-23T01:17:52;16.50;99.90
36884;DHT22;22816;52.044;4.730;2022-07-23T01:20:19;16.50;99.90
36884;DHT22;22816;52.044;4.730;2022-07-23T01:22:46;16.50;99.90
36884;DHT22;22816;52.044;4.730;2022-07-23T01:25:13;16.50;99.90
36884;DHT22;22816;52.044;4.730;2022-07-23T01:27:41;16.50;99.90
36884;DHT22;22816;52.044;4.730;2022-07-23T01:30:10;16.50;99.90
36884;DHT22;22816;52.044;4.730;2022-07-23T01:32:37;16.50;99.90
36884;DHT22;22816;52.044;4.730;2022-07-23T01:35:05;16.50;99.90
36884;DHT22;22816;52.044;4.730;2022-07-23T01:37:33;16.50;99.90
36884;DHT22;22816;52.044;4.730;2022-07-23T01:40:00;16.50;99.90
36884;DHT22;22816;52.044;4.730;2022-07-23T01:42:27;16.40;99.90
36884;DHT22;22816;52.044;4.730;2022-07-23T01:44:53;16.40;99.90
36884;DHT22;22816;52.044;4.730;2022-07-23T01:47:20;16.40;99.90
36884;DHT22;22816;52.044;4.730;2022-07-23T01:49:47;16.40;99.90
36884;DHT22;22816;52.044;4.730;2022-07-23T01:52:13;16.30;99.90
36884;DHT22;22816;52.044;4.730;2022-07-23T01:54:40;16.30;99.90
36884;DHT22;22816;52.044;4.730;2022-07-23T01:57:07;16.30;99.90
36884;DHT22;22816;52.044;4.730;2022-07-23T01:59:35;16.20;99.90
36884;DHT22;22816;52.044;4.730;2022-07-23T02:02:02;16.20;99.90
36884;DHT22;22816;52.044;4.730;2022-07-23T02:04:32;16.20;99.90
36884;DHT22;22816;52.044;4.730;2022-07-23T02:07:11;16.10;99.90
36884;DHT22;22816;52.044;4.730;2022-07-23T02:09:37;16.10;99.90
36884;DHT22;22816;52.044;4.730;2022-07-23T02:12:05;16.10;99.90
36884;DHT22;22816;52.044;4.730;2022-07-23T02:14:32;16.10;99.90
36884;DHT22;22816;52.044;4.730;2022-07-23T02:16:59;16.10;99.90
36884;DHT22;22816;52.044;4.730;2022-07-23T02:19:25;16.10;99.90
36884;DHT22;22816;52.044;4.730;2022-07-23T02:21:53;16.00;99.90
36884;DHT22;22816;52.044;4.730;2022-07-23T02:24:21;16.00;99.90
36884;DHT22;22816;52.044;4.730;2022-07-23T02:26:48;15.90;99.90
36884;DHT22;22816;52.044;4.730;2022-07-23T02:29:15;15.90;99.90
36884;DHT22;22816;52.044;4.730;2022-07-23T02:31:42;15.90;99.90
36884;DHT22;22816;52.044;4.730;2022-07-23T02:34:08;15.90;99.90
36884;DHT22;22816;52.044;4.730;2022-07-23T02:36:38;15.90;99.90
36884;DHT22;22816;52.044;4.730;2022-07-23T02:39:05;15.80;99.90
36884;DHT22;22816;52.044;4.730;2022-07-23T02:41:32;15.80;99.90
36884;DHT22;22816;52.044;4.730;2022-07-23T02:43:58;15.70;99.90
36884;DHT22;22816;52.044;4.730;2022-07-23T02:46:25;15.70;99.90
36884;DHT22;22816;52.044;4.730;2022-07-23T02:48:52;15.70;99.90
36884;DHT22;22816;52.044;4.730;2022-07-23T02:51:19;15.70;99.90
36884;DHT22;22816;52.044;4.730;2022-07-23T02:53:46;15.70;99.90
36884;DHT22;22816;52.044;4.730;2022-07-23T02:56:12;15.70;99.90
36884;DHT22;22816;52.044;4.730;2022-07-23T02:58:39;15.70;99.90
36884;DHT22;22816;52.044;4.730;2022-07-23T03:01:06;15.70;99.90
36884;DHT22;22816;52.044;4.730;2022-07-23T03:03:32;15.70;99.90
36884;DHT22;22816;52.044;4.730;2022-07-23T03:05:59;15.70;99.90
36884;DHT22;22816;52.044;4.730;2022-07-23T03:08:25;15.70;99.90
36884;DHT22;22816;52.044;4.730;2022-07-23T03:10:52;15.70;99.90
36884;DHT22;22816;52.044;4.730;2022-07-23T03:13:19;15.70;99.90
36884;DHT22;22816;52.044;4.730;2022-07-23T03:15:45;15.70;99.90
36884;DHT22;22816;52.044;4.730;2022-07-23T03:18:12;15.70;99.90
36884;DHT22;22816;52.044;4.730;2022-07-23T03:20:39;15.70;99.90
36884;DHT22;22816;52.044;4.730;2022-07-23T03:23:05;15.70;99.90
36884;DHT22;22816;52.044;4.730;2022-07-23T03:25:32;15.70;99.90
36884;DHT22;22816;52.044;4.730;2022-07-23T03:27:59;15.70;99.90
36884;DHT22;22816;52.044;4.730;2022-07-23T03:30:25;15.70;99.90
36884;DHT22;22816;52.044;4.730;2022-07-23T03:32:52;15.70;99.90
36884;DHT22;22816;52.044;4.730;2022-07-23T03:35:18;15.70;99.90
36884;DHT22;22816;52.044;4.730;2022-07-23T03:37:45;15.70;99.90
36884;DHT22;22816;52.044;4.730;2022-07-23T03:40:12;15.70;99.90
36884;DHT22;22816;52.044;4.730;2022-07-23T03:42:39;15.70;99.90
36884;DHT22;22816;52.044;4.730;2022-07-23T03:45:09;15.70;99.90
36884;DHT22;22816;52.044;4.730;2022-07-23T03:47:36;15.70;99.90
36884;DHT22;22816;52.044;4.730;2022-07-23T03:50:06;15.60;99.90
36884;DHT22;22816;52.044;4.730;2022-07-23T03:52:33;15.60;99.90
36884;DHT22;22816;52.044;4.730;2022-07-23T03:55:00;15.60;99.90
36884;DHT22;22816;52.044;4.730;2022-07-23T03:57:27;15.60;99.90
36884;DHT22;22816;52.044;4.730;2022-07-23T03:59:54;15.60;99.90
36884;DHT22;22816;52.044;4.730;2022-07-23T04:02:21;15.60;99.90
36884;DHT22;22816;52.044;4.730;2022-07-23T04:04:48;15.60;99.90
36884;DHT22;22816;52.044;4.730;2022-07-23T04:07:14;15.60;99.90
36884;DHT22;22816;52.044;4.730;2022-07-23T04:09:44;15.50;99.90
36884;DHT22;22816;52.044;4.730;2022-07-23T04:12:10;15.60;99.90
36884;DHT22;22816;52.044;4.730;2022-07-23T04:14:37;15.60;99.90
36884;DHT22;22816;52.044;4.730;2022-07-23T04:17:04;15.60;99.90
36884;DHT22;22816;52.044;4.730;2022-07-23T04:19:31;15.60;99.90
36884;DHT22;22816;52.044;4.730;2022-07-23T04:21:57;15.60;99.90
36884;DHT22;22816;52.044;4.730;2022-07-23T04:24:24;15.60;99.90
36884;DHT22;22816;52.044;4.730;2022-07-23T04:26:51;15.60;99.90
36884;DHT22;22816;52.044;4.730;2022-07-23T04:29:17;15.60;99.90
36884;DHT22;22816;52.044;4.730;2022-07-23T04:31:44;15.60;99.90
36884;DHT22;22816;52.044;4.730;2022-07-23T04:34:11;15.70;99.90
36884;DHT22;22816;52.044;4.730;2022-07-23T04:36:37;15.70;99.90
36884;DHT22;22816;52.044;4.730;2022-07-23T04:39:04;15.70;99.90
36884;DHT22;22816;52.044;4.730;2022-07-23T04:41:31;15.70;99.90
36884;DHT22;22816;52.044;4.730;2022-07-23T04:43:58;15.70;99.90
36884;DHT22;22816;52.044;4.730;2022-07-23T04:46:24;15.80;99.90
36884;DHT22;22816;52.044;4.730;2022-07-23T04:48:51;15.80;99.90
36884;DHT22;22816;52.044;4.730;2022-07-23T04:51:18;15.80;99.90
36884;DHT22;22816;52.044;4.730;2022-07-23T04:53:45;15.80;99.90
36884;DHT22;22816;52.044;4.730;2022-07-23T04:56:12;15.80;99.90
36884;DHT22;22816;52.044;4.730;2022-07-23T04:58:39;15.90;99.90
36884;DHT22;22816;52.044;4.730;2022-07-23T05:01:06;16.00;99.90
36884;DHT22;22816;52.044;4.730;2022-07-23T05:03:34;16.00;99.90
36884;DHT22;22816;52.044;4.730;2022-07-23T05:06:00;16.10;99.90
36884;DHT22;22816;52.044;4.730;2022-07-23T05:08:29;16.10;99.90
36884;DHT22;22816;52.044;4.730;2022-07-23T05:10:55;16.10;99.90
36884;DHT22;22816;52.044;4.730;2022-07-23T05:13:22;16.20;99.90
36884;DHT22;22816;52.044;4.730;2022-07-23T05:15:49;16.20;99.90
36884;DHT22;22816;52.044;4.730;2022-07-23T05:18:16;16.30;99.90
36884;DHT22;22816;52.044;4.730;2022-07-23T05:20:43;16.30;99.90
36884;DHT22;22816;52.044;4.730;2022-07-23T05:23:10;16.30;99.90
36884;DHT22;22816;52.044;4.730;2022-07-23T05:25:36;16.40;99.90
36884;DHT22;22816;52.044;4.730;2022-07-23T05:28:04;16.40;99.90
36884;DHT22;22816;52.044;4.730;2022-07-23T05:30:30;16.40;99.90
36884;DHT22;22816;52.044;4.730;2022-07-23T05:32:57;16.50;99.90
36884;DHT22;22816;52.044;4.730;2022-07-23T05:35:24;16.50;99.90
36884;DHT22;22816;52.044;4.730;2022-07-23T05:37:51;16.50;99.90
36884;DHT22;22816;52.044;4.730;2022-07-23T05:40:19;16.60;99.90
36884;DHT22;22816;52.044;4.730;2022-07-23T05:42:46;16.60;99.90
36884;DHT22;22816;52.044;4.730;2022-07-23T05:45:12;16.60;99.90
36884;DHT22;22816;52.044;4.730;2022-07-23T05:47:49;16.70;99.90
36884;DHT22;22816;52.044;4.730;2022-07-23T05:50:16;16.80;99.90
36884;DHT22;22816;52.044;4.730;2022-07-23T05:52:44;16.90;99.90
36884;DHT22;22816;52.044;4.730;2022-07-23T05:55:11;16.90;99.90
36884;DHT22;22816;52.044;4.730;2022-07-23T05:57:39;16.90;99.90
36884;DHT22;22816;52.044;4.730;2022-07-23T06:00:07;17.00;99.90
36884;DHT22;22816;52.044;4.730;2022-07-23T06:02:34;17.10;99.90
36884;DHT22;22816;52.044;4.730;2022-07-23T06:05:01;17.20;99.90
36884;DHT22;22816;52.044;4.730;2022-07-23T06:07:28;17.20;99.90
36884;DHT22;22816;52.044;4.730;2022-07-23T06:09:55;17.30;99.90
36884;DHT22;22816;52.044;4.730;2022-07-23T06:12:21;17.50;99.90
36884;DHT22;22816;52.044;4.730;2022-07-23T06:14:48;17.50;99.90
36884;DHT22;22816;52.044;4.730;2022-07-23T06:17:15;17.60;99.90
36884;DHT22;22816;52.044;4.730;2022-07-23T06:19:42;17.70;99.90
36884;DHT22;22816;52.044;4.730;2022-07-23T06:22:09;17.80;99.90
36884;DHT22;22816;52.044;4.730;2022-07-23T06:24:37;17.90;99.90
36884;DHT22;22816;52.044;4.730;2022-07-23T06:27:04;18.00;99.90
36884;DHT22;22816;52.044;4.730;2022-07-23T06:29:31;18.10;99.90
36884;DHT22;22816;52.044;4.730;2022-07-23T06:31:58;18.20;99.90
36884;DHT22;22816;52.044;4.730;2022-07-23T06:34:24;18.20;99.90
36884;DHT22;22816;52.044;4.730;2022-07-23T06:36:52;18.40;99.90
36884;DHT22;22816;52.044;4.730;2022-07-23T06:39:19;18.50;99.90
36884;DHT22;22816;52.044;4.730;2022-07-23T06:41:46;18.60;99.90
36884;DHT22;22816;52.044;4.730;2022-07-23T06:44:13;18.70;99.90
36884;DHT22;22816;52.044;4.730;2022-07-23T06:46:40;18.80;99.90
36884;DHT22;22816;52.044;4.730;2022-07-23T06:49:07;18.80;99.90
36884;DHT22;22816;52.044;4.730;2022-07-23T06:51:34;18.90;99.90
36884;DHT22;22816;52.044;4.730;2022-07-23T06:54:00;18.90;99.90
36884;DHT22;22816;52.044;4.730;2022-07-23T06:56:26;19.10;99.90
36884;DHT22;22816;52.044;4.730;2022-07-23T06:58:53;19.20;99.90
36884;DHT22;22816;52.044;4.730;2022-07-23T07:01:20;19.30;99.90
36884;DHT22;22816;52.044;4.730;2022-07-23T07:03:47;19.40;99.90
36884;DHT22;22816;52.044;4.730;2022-07-23T07:06:15;19.60;99.90
36884;DHT22;22816;52.044;4.730;2022-07-23T07:08:41;19.70;99.90
36884;DHT22;22816;52.044;4.730;2022-07-23T07:11:10;19.80;99.90
36884;DHT22;22816;52.044;4.730;2022-07-23T07:13:38;20.00;99.90
36884;DHT22;22816;52.044;4.730;2022-07-23T07:16:05;20.10;99.90
36884;DHT22;22816;52.044;4.730;2022-07-23T07:18:33;20.10;99.90
36884;DHT22;22816;52.044;4.730;2022-07-23T07:20:59;20.20;99.90
36884;DHT22;22816;52.044;4.730;2022-07-23T07:23:26;20.20;99.90
36884;DHT22;22816;52.044;4.730;2022-07-23T07:25:53;20.30;99.90
36884;DHT22;22816;52.044;4.730;2022-07-23T07:28:19;20.30;99.90
36884;DHT22;22816;52.044;4.730;2022-07-23T07:30:46;20.40;99.90
36884;DHT22;22816;52.044;4.730;2022-07-23T07:33:13;20.50;99.90
36884;DHT22;22816;52.044;4.730;2022-07-23T07:35:39;20.70;99.90
36884;DHT22;22816;52.044;4.730;2022-07-23T07:38:06;20.70;99.90
36884;DHT22;22816;52.044;4.730;2022-07-23T07:40:33;20.70;99.90
36884;DHT22;22816;52.044;4.730;2022-07-23T07:43:00;20.90;99.90
36884;DHT22;22816;52.044;4.730;2022-07-23T07:45:27;20.90;99.90
36884;DHT22;22816;52.044;4.730;2022-07-23T07:47:55;21.00;99.90
36884;DHT22;22816;52.044;4.730;2022-07-23T07:50:22;21.10;99.90
36884;DHT22;22816;52.044;4.730;2022-07-23T07:52:48;21.10;99.90
36884;DHT22;22816;52.044;4.730;2022-07-23T07:55:15;21.20;99.90
36884;DHT22;22816;52.044;4.730;2022-07-23T07:57:42;21.40;99.90
36884;DHT22;22816;52.044;4.730;2022-07-23T08:00:11;21.50;99.90
36884;DHT22;22816;52.044;4.730;2022-07-23T08:02:56;21.60;99.90
36884;DHT22;22816;52.044;4.730;2022-07-23T08:05:27;21.70;99.90
36884;DHT22;22816;52.044;4.730;2022-07-23T08:07:56;21.80;99.90
36884;DHT22;22816;52.044;4.730;2022-07-23T08:10:25;21.80;99.90
36884;DHT22;22816;52.044;4.730;2022-07-23T08:12:54;21.90;99.90
36884;DHT22;22816;52.044;4.730;2022-07-23T08:15:23;21.80;99.90
36884;DHT22;22816;52.044;4.730;2022-07-23T08:17:50;22.00;99.90
36884;DHT22;22816;52.044;4.730;2022-07-23T08:20:19;22.10;99.90
36884;DHT22;22816;52.044;4.730;2022-07-23T08:22:54;21.90;99.90
36884;DHT22;22816;52.044;4.730;2022-07-23T08:25:24;22.00;99.90
36884;DHT22;22816;52.044;4.730;2022-07-23T08:27:52;22.10;99.90
36884;DHT22;22816;52.044;4.730;2022-07-23T08:30:19;22.20;99.90
36884;DHT22;22816;52.044;4.730;2022-07-23T08:32:58;22.20;99.90
36884;DHT22;22816;52.044;4.730;2022-07-23T08:35:41;22.40;99.90
36884;DHT22;22816;52.044;4.730;2022-07-23T08:38:10;22.60;99.90
36884;DHT22;22816;52.044;4.730;2022-07-23T08:40:39;22.70;99.90
36884;DHT22;22816;52.044;4.730;2022-07-23T08:43:08;22.80;99.90
36884;DHT22;22816;52.044;4.730;2022-07-23T08:45:39;22.90;99.90
36884;DHT22;22816;52.044;4.730;2022-07-23T08:48:13;22.90;99.90
36884;DHT22;22816;52.044;4.730;2022-07-23T08:50:47;22.60;99.90
36884;DHT22;22816;52.044;4.730;2022-07-23T08:53:15;22.60;99.90
36884;DHT22;22816;52.044;4.730;2022-07-23T08:55:46;22.60;99.90
36884;DHT22;22816;52.044;4.730;2022-07-23T08:58:13;22.60;99.90
36884;DHT22;22816;52.044;4.730;2022-07-23T09:00:40;22.80;99.90
36884;DHT22;22816;52.044;4.730;2022-07-23T09:03:07;23.10;99.90
36884;DHT22;22816;52.044;4.730;2022-07-23T09:05:41;23.30;99.90
36884;DHT22;22816;52.044;4.730;2022-07-23T09:08:16;23.50;99.90
36884;DHT22;22816;52.044;4.730;2022-07-23T09:10:58;23.50;99.90
36884;DHT22;22816;52.044;4.730;2022-07-23T09:14:08;23.50;99.90
36884;DHT22;22816;52.044;4.730;2022-07-23T09:16:34;23.60;99.90
36884;DHT22;22816;52.044;4.730;2022-07-23T09:19:04;23.60;99.90
36884;DHT22;22816;52.044;4.730;2022-07-23T09:22:21;23.60;99.90
36884;DHT22;22816;52.044;4.730;2022-07-23T09:28:20;23.50;99.90
36884;DHT22;22816;52.044;4.730;2022-07-23T09:30:46;23.80;99.90
36884;DHT22;22816;52.044;4.730;2022-07-23T09:33:16;24.00;99.90
36884;DHT22;22816;52.044;4.730;2022-07-23T09:35:48;24.00;99.90
36884;DHT22;22816;52.044;4.730;2022-07-23T09:38:16;24.20;99.90
36884;DHT22;22816;52.044;4.730;2022-07-23T09:40:44;24.30;99.90
36884;DHT22;22816;52.044;4.730;2022-07-23T09:43:10;24.50;99.90
36884;DHT22;22816;52.044;4.730;2022-07-23T09:45:37;24.60;99.90
36884;DHT22;22816;52.044;4.730;2022-07-23T09:48:16;24.50;99.90
36884;DHT22;22816;52.044;4.730;2022-07-23T09:50:51;24.60;99.90
36884;DHT22;22816;52.044;4.730;2022-07-23T09:53:25;24.70;99.90
36884;DHT22;22816;52.044;4.730;2022-07-23T09:55:53;24.70;99.90
36884;DHT22;22816;52.044;4.730;2022-07-23T09:58:24;24.80;99.90
36884;DHT22;22816;52.044;4.730;2022-07-23T10:00:53;24.90;99.90
36884;DHT22;22816;52.044;4.730;2022-07-23T10:03:21;25.10;99.90
36884;DHT22;22816;52.044;4.730;2022-07-23T10:05:50;25.10;99.90
36884;DHT22;22816;52.044;4.730;2022-07-23T10:08:19;25.10;99.90
36884;DHT22;22816;52.044;4.730;2022-07-23T10:10:47;25.00;99.90
36884;DHT22;22816;52.044;4.730;2022-07-23T10:13:15;24.60;99.90
36884;DHT22;22816;52.044;4.730;2022-07-23T10:16:17;24.50;99.90
36884;DHT22;22816;52.044;4.730;2022-07-23T10:18:46;24.30;99.90
36884;DHT22;22816;52.044;4.730;2022-07-23T10:21:21;24.40;99.90
36884;DHT22;22816;52.044;4.730;2022-07-23T10:27:12;24.70;99.90
36884;DHT22;22816;52.044;4.730;2022-07-23T10:30:06;24.90;99.90
36884;DHT22;22816;52.044;4.730;2022-07-23T10:34:12;25.00;99.90
36884;DHT22;22816;52.044;4.730;2022-07-23T10:36:58;25.30;99.90
36884;DHT22;22816;52.044;4.730;2022-07-23T10:39:33;25.20;99.90
36884;DHT22;22816;52.044;4.730;2022-07-23T10:43:00;25.10;99.90
36884;DHT22;22816;52.044;4.730;2022-07-23T10:45:35;25.10;99.90
36884;DHT22;22816;52.044;4.730;2022-07-23T10:48:25;25.30;99.90
36884;DHT22;22816;52.044;4.730;2022-07-23T10:51:13;25.50;99.90
36884;DHT22;22816;52.044;4.730;2022-07-23T10:53:57;25.80;99.90
36884;DHT22;22816;52.044;4.730;2022-07-23T11:01:02;25.90;99.90
36884;DHT22;22816;52.044;4.730;2022-07-23T11:03:31;26.50;99.90
36884;DHT22;22816;52.044;4.730;2022-07-23T11:05:59;26.80;99.90
36884;DHT22;22816;52.044;4.730;2022-07-23T11:08:26;27.00;99.90
36884;DHT22;22816;52.044;4.730;2022-07-23T11:11:26;27.30;99.90
36884;DHT22;22816;52.044;4.730;2022-07-23T11:13:53;27.30;99.90
36884;DHT22;22816;52.044;4.730;2022-07-23T11:16:22;27.00;99.90
36884;DHT22;22816;52.044;4.730;2022-07-23T11:18:58;26.80;99.90
36884;DHT22;22816;52.044;4.730;2022-07-23T11:21:40;26.00;99.90
36884;DHT22;22816;52.044;4.730;2022-07-23T11:24:13;25.90;99.90
36884;DHT22;22816;52.044;4.730;2022-07-23T11:29:41;26.20;99.90
36884;DHT22;22816;52.044;4.730;2022-07-23T11:32:30;26.60;99.90
36884;DHT22;22816;52.044;4.730;2022-07-23T11:34:59;26.90;99.90
36884;DHT22;22816;52.044;4.730;2022-07-23T11:37:41;27.00;99.90
36884;DHT22;22816;52.044;4.730;2022-07-23T11:40:20;27.40;99.90
36884;DHT22;22816;52.044;4.730;2022-07-23T11:42:56;27.60;99.90
36884;DHT22;22816;52.044;4.730;2022-07-23T11:45:25;28.00;99.90
36884;DHT22;22816;52.044;4.730;2022-07-23T11:47:53;28.30;99.90
36884;DHT22;22816;52.044;4.730;2022-07-23T11:50:22;28.50;99.90
36884;DHT22;22816;52.044;4.730;2022-07-23T11:52:50;28.50;99.90
36884;DHT22;22816;52.044;4.730;2022-07-23T11:55:16;28.10;99.90
36884;DHT22;22816;52.044;4.730;2022-07-23T11:57:43;28.40;99.90
36884;DHT22;22816;52.044;4.730;2022-07-23T12:00:24;28.40;99.90
36884;DHT22;22816;52.044;4.730;2022-07-23T12:02:54;28.70;99.90
36884;DHT22;22816;52.044;4.730;2022-07-23T12:05:34;29.00;99.90
36884;DHT22;22816;52.044;4.730;2022-07-23T12:08:05;29.20;99.90
36884;DHT22;22816;52.044;4.730;2022-07-23T12:10:43;29.20;99.90
36884;DHT22;22816;52.044;4.730;2022-07-23T12:13:20;29.20;99.90
36884;DHT22;22816;52.044;4.730;2022-07-23T12:15:52;29.40;99.90
36884;DHT22;22816;52.044;4.730;2022-07-23T12:18:21;29.50;99.90
36884;DHT22;22816;52.044;4.730;2022-07-23T12:20:51;29.50;99.90
36884;DHT22;22816;52.044;4.730;2022-07-23T12:23:21;29.50;99.90
36884;DHT22;22816;52.044;4.730;2022-07-23T12:25:49;29.40;99.90
36884;DHT22;22816;52.044;4.730;2022-07-23T12:28:18;29.30;99.90
36884;DHT22;22816;52.044;4.730;2022-07-23T12:31:04;29.40;99.90
36884;DHT22;22816;52.044;4.730;2022-07-23T12:33:48;29.40;99.90
36884;DHT22;22816;52.044;4.730;2022-07-23T12:36:17;29.30;99.90
36884;DHT22;22816;52.044;4.730;2022-07-23T12:38:47;29.20;99.90
36884;DHT22;22816;52.044;4.730;2022-07-23T12:41:17;29.30;99.90
36884;DHT22;22816;52.044;4.730;2022-07-23T12:43:45;29.40;99.90
36884;DHT22;22816;52.044;4.730;2022-07-23T12:46:20;29.50;99.90
36884;DHT22;22816;52.044;4.730;2022-07-23T12:48:56;29.60;99.90
36884;DHT22;22816;52.044;4.730;2022-07-23T12:51:24;29.70;99.90
36884;DHT22;22816;52.044;4.730;2022-07-23T12:53:56;29.70;99.90
36884;DHT22;22816;52.044;4.730;2022-07-23T12:56:33;29.60;99.90
36884;DHT22;22816;52.044;4.730;2022-07-23T12:59:06;29.70;99.90
36884;DHT22;22816;52.044;4.730;2022-07-23T13:01:40;29.60;99.90
36884;DHT22;22816;52.044;4.730;2022-07-23T13:04:10;29.70;99.90
36884;DHT22;22816;52.044;4.730;2022-07-23T13:09:26;29.80;99.90
36884;DHT22;22816;52.044;4.730;2022-07-23T13:11:54;29.90;99.90
36884;DHT22;22816;52.044;4.730;2022-07-23T13:14:22;29.90;99.90
36884;DHT22;22816;52.044;4.730;2022-07-23T13:16:50;29.90;99.90
36884;DHT22;22816;52.044;4.730;2022-07-23T13:19:18;29.90;99.90
36884;DHT22;22816;52.044;4.730;2022-07-23T13:21:45;29.70;99.90
36884;DHT22;22816;52.044;4.730;2022-07-23T13:24:13;29.60;99.90
36884;DHT22;22816;52.044;4.730;2022-07-23T13:26:40;29.30;99.90
36884;DHT22;22816;52.044;4.730;2022-07-23T13:29:08;29.30;99.90
36884;DHT22;22816;52.044;4.730;2022-07-23T13:31:47;29.40;99.90
36884;DHT22;22816;52.044;4.730;2022-07-23T13:34:15;29.40;99.90
36884;DHT22;22816;52.044;4.730;2022-07-23T13:36:42;29.50;99.90
36884;DHT22;22816;52.044;4.730;2022-07-23T13:39:09;29.70;99.90
36884;DHT22;22816;52.044;4.730;2022-07-23T13:41:37;29.80;99.90
36884;DHT22;22816;52.044;4.730;2022-07-23T13:44:05;29.70;99.90
36884;DHT22;22816;52.044;4.730;2022-07-23T13:46:32;29.50;99.90
36884;DHT22;22816;52.044;4.730;2022-07-23T13:48:58;29.30;99.90
36884;DHT22;22816;52.044;4.730;2022-07-23T13:51:25;29.00;99.90
36884;DHT22;22816;52.044;4.730;2022-07-23T13:53:52;28.60;99.90
36884;DHT22;22816;52.044;4.730;2022-07-23T13:56:19;28.70;99.90
36884;DHT22;22816;52.044;4.730;2022-07-23T13:58:45;28.70;99.90
36884;DHT22;22816;52.044;4.730;2022-07-23T14:01:12;28.60;99.90
36884;DHT22;22816;52.044;4.730;2022-07-23T14:03:39;28.50;99.90
36884;DHT22;22816;52.044;4.730;2022-07-23T14:06:06;28.60;99.90
36884;DHT22;22816;52.044;4.730;2022-07-23T14:08:33;28.70;99.90
36884;DHT22;22816;52.044;4.730;2022-07-23T14:11:00;28.40;99.90
36884;DHT22;22816;52.044;4.730;2022-07-23T14:13:26;28.40;99.90
36884;DHT22;22816;52.044;4.730;2022-07-23T14:15:53;28.20;99.90
36884;DHT22;22816;52.044;4.730;2022-07-23T14:18:20;28.00;99.90
36884;DHT22;22816;52.044;4.730;2022-07-23T14:20:47;28.00;99.90
36884;DHT22;22816;52.044;4.730;2022-07-23T14:23:13;28.10;99.90
36884;DHT22;22816;52.044;4.730;2022-07-23T14:25:40;28.50;99.90
36884;DHT22;22816;52.044;4.730;2022-07-23T14:28:07;28.70;99.90
36884;DHT22;22816;52.044;4.730;2022-07-23T14:30:33;28.60;99.90
36884;DHT22;22816;52.044;4.730;2022-07-23T14:33:01;28.40;99.90
36884;DHT22;22816;52.044;4.730;2022-07-23T14:35:28;28.40;99.90
36884;DHT22;22816;52.044;4.730;2022-07-23T14:37:55;27.50;99.90
36884;DHT22;22816;52.044;4.730;2022-07-23T14:40:23;27.20;99.90
36884;DHT22;22816;52.044;4.730;2022-07-23T14:42:50;27.60;99.90
36884;DHT22;22816;52.044;4.730;2022-07-23T14:45:17;28.00;99.90
36884;DHT22;22816;52.044;4.730;2022-07-23T14:47:44;28.30;99.90
36884;DHT22;22816;52.044;4.730;2022-07-23T14:50:11;28.40;99.90
36884;DHT22;22816;52.044;4.730;2022-07-23T14:52:37;28.50;99.90
36884;DHT22;22816;52.044;4.730;2022-07-23T14:55:05;28.40;99.90
36884;DHT22;22816;52.044;4.730;2022-07-23T14:57:32;28.30;99.90
36884;DHT22;22816;52.044;4.730;2022-07-23T14:59:59;28.00;99.90
36884;DHT22;22816;52.044;4.730;2022-07-23T15:02:25;27.70;99.90
36884;DHT22;22816;52.044;4.730;2022-07-23T15:04:52;27.80;99.90
36884;DHT22;22816;52.044;4.730;2022-07-23T15:07:19;27.30;99.90
36884;DHT22;22816;52.044;4.730;2022-07-23T15:09:46;27.00;99.90
36884;DHT22;22816;52.044;4.730;2022-07-23T15:12:13;26.50;99.90
36884;DHT22;22816;52.044;4.730;2022-07-23T15:14:39;26.60;99.90
36884;DHT22;22816;52.044;4.730;2022-07-23T15:17:06;26.80;99.90
36884;DHT22;22816;52.044;4.730;2022-07-23T15:19:33;26.70;99.90
36884;DHT22;22816;52.044;4.730;2022-07-23T15:21:59;26.60;99.90
36884;DHT22;22816;52.044;4.730;2022-07-23T15:24:26;26.60;99.90
36884;DHT22;22816;52.044;4.730;2022-07-23T15:26:53;26.70;99.90
36884;DHT22;22816;52.044;4.730;2022-07-23T15:29:20;26.80;99.90
36884;DHT22;22816;52.044;4.730;2022-07-23T15:31:46;26.90;99.90
36884;DHT22;22816;52.044;4.730;2022-07-23T15:34:12;27.10;99.90
36884;DHT22;22816;52.044;4.730;2022-07-23T15:36:39;27.10;99.90
36884;DHT22;22816;52.044;4.730;2022-07-23T15:39:05;27.30;99.90
36884;DHT22;22816;52.044;4.730;2022-07-23T15:41:33;27.60;99.90
36884;DHT22;22816;52.044;4.730;2022-07-23T15:44:00;27.70;99.90
36884;DHT22;22816;52.044;4.730;2022-07-23T15:46:28;27.30;99.90
36884;DHT22;22816;52.044;4.730;2022-07-23T15:48:54;27.10;99.90
36884;DHT22;22816;52.044;4.730;2022-07-23T15:51:21;26.70;99.90
36884;DHT22;22816;52.044;4.730;2022-07-23T15:53:48;26.90;99.90
36884;DHT22;22816;52.044;4.730;2022-07-23T15:56:14;27.10;99.90
36884;DHT22;22816;52.044;4.730;2022-07-23T15:58:41;27.30;99.90
36884;DHT22;22816;52.044;4.730;2022-07-23T16:01:10;27.50;99.90